createdAt,value
2023-04-30T00:00:54.882Z,87.65
2023-04-30T00:01:54.948Z,87.59
2023-04-30T00:02:54.955Z,87.65
2023-04-30T00:03:54.966Z,88.27
2023-04-30T00:04:54.922Z,88.27
2023-04-30T00:05:54.914Z,88.10
2023-04-30T00:06:54.841Z,87.96
2023-04-30T00:07:54.837Z,87.28
2023-04-30T00:08:54.804Z,87.69
2023-04-30T00:09:54.944Z,87.49
2023-04-30T00:10:54.793Z,87.28
2023-04-30T00:11:54.775Z,87.18
2023-04-30T00:12:54.793Z,87.18
2023-04-30T00:13:54.901Z,87.22
2023-04-30T00:14:54.758Z,87.12
2023-04-30T00:15:54.766Z,87.22
2023-04-30T00:16:54.739Z,87.22
2023-04-30T00:17:54.778Z,87.12
2023-04-30T00:18:54.737Z,87.32
2023-04-30T00:19:54.944Z,87.22
2023-04-30T00:20:54.692Z,87.01
2023-04-30T00:21:54.685Z,87.52
2023-04-30T00:22:54.671Z,87.32
2023-04-30T00:23:54.659Z,87.32
2023-04-30T00:24:54.665Z,87.73
2023-04-30T00:25:54.637Z,87.73
2023-04-30T00:26:54.669Z,87.63
2023-04-30T00:27:54.623Z,87.52
2023-04-30T00:28:54.616Z,88.04
2023-04-30T00:29:54.780Z,87.46
2023-04-30T00:30:54.610Z,86.80
2023-04-30T00:31:54.630Z,87.26
2023-04-30T00:32:54.616Z,87.46
2023-04-30T00:33:54.575Z,87.57
2023-04-30T00:34:54.552Z,87.36
2023-04-30T00:35:54.554Z,87.15
2023-04-30T00:36:54.532Z,87.15
2023-04-30T00:37:54.517Z,87.05
2023-04-30T00:38:54.508Z,86.33
2023-04-30T00:39:54.616Z,86.47
2023-04-30T00:40:54.518Z,86.88
2023-04-30T00:41:54.508Z,86.95
2023-04-30T00:42:54.457Z,86.79
2023-04-30T00:43:54.459Z,87.60
2023-04-30T00:44:54.449Z,87.60
2023-04-30T00:45:54.513Z,87.60
2023-04-30T00:46:54.458Z,87.71
2023-04-30T00:47:54.452Z,87.60
2023-04-30T00:48:54.412Z,88.23
2023-04-30T00:49:54.629Z,88.33
2023-04-30T00:50:54.402Z,88.53
2023-04-30T00:51:54.434Z,88.64
2023-04-30T00:52:54.365Z,89.05
2023-04-30T00:53:54.359Z,89.25
2023-04-30T00:54:54.434Z,89.97
2023-04-30T00:55:54.337Z,89.87
2023-04-30T00:56:54.328Z,90.22
2023-04-30T00:57:54.321Z,90.01
2023-04-30T00:58:54.322Z,90.64
2023-04-30T00:59:55.561Z,90.64
2023-04-30T01:00:54.301Z,90.84
2023-04-30T01:01:54.286Z,90.22
2023-04-30T01:02:54.393Z,89.91
2023-04-30T01:03:54.262Z,88.89
2023-04-30T01:04:54.271Z,88.47
2023-04-30T01:05:54.311Z,87.75
2023-04-30T01:06:54.218Z,87.27
2023-04-30T01:07:54.220Z,87.44
2023-04-30T01:08:54.217Z,87.38
2023-04-30T01:09:54.519Z,86.49
2023-04-30T01:10:54.201Z,87.52
2023-04-30T01:11:54.171Z,87.83
2023-04-30T01:12:54.239Z,88.35
2023-04-30T01:13:54.201Z,88.08
2023-04-30T01:14:54.141Z,89.38
2023-04-30T01:15:54.150Z,90.14
2023-04-30T01:16:54.134Z,90.10
2023-04-30T01:17:54.207Z,90.20
2023-04-30T01:18:54.253Z,90.72
2023-04-30T01:19:54.245Z,90.82
2023-04-30T01:20:54.080Z,90.72
2023-04-30T01:21:54.070Z,90.61
2023-04-30T01:22:54.086Z,91.24
2023-04-30T01:23:54.064Z,91.17
2023-04-30T01:24:54.061Z,91.38
2023-04-30T01:25:54.041Z,91.69
2023-04-30T01:26:54.022Z,92.25
2023-04-30T01:27:54.047Z,92.35
2023-04-30T01:28:54.009Z,93.07
2023-04-30T01:29:54.206Z,93.07
2023-04-30T01:30:54.018Z,93.53
2023-04-30T01:31:53.970Z,94.00
2023-04-30T01:32:54.417Z,93.69
2023-04-30T01:33:53.973Z,93.79
2023-04-30T01:34:53.944Z,93.69
2023-04-30T01:35:53.924Z,93.69
2023-04-30T01:36:53.919Z,93.63
2023-04-30T01:37:53.907Z,94.04
2023-04-30T01:38:53.925Z,94.25
2023-04-30T01:39:54.012Z,94.15
2023-04-30T01:40:53.904Z,93.94
2023-04-30T01:41:53.881Z,94.42
2023-04-30T01:42:53.874Z,93.90
2023-04-30T01:43:53.887Z,93.59
2023-04-30T01:44:53.858Z,93.69
2023-04-30T01:45:53.878Z,93.59
2023-04-30T01:46:53.830Z,93.28
2023-04-30T01:47:53.926Z,93.49
2023-04-30T01:48:53.803Z,93.49
2023-04-30T01:49:53.937Z,93.38
2023-04-30T01:50:53.811Z,93.28
2023-04-30T01:51:53.797Z,93.07
2023-04-30T01:52:53.817Z,92.86
2023-04-30T01:53:53.764Z,93.28
2023-04-30T01:54:53.752Z,92.66
2023-04-30T01:55:53.761Z,92.51
2023-04-30T01:56:53.730Z,92.35
2023-04-30T01:57:53.701Z,92.08
2023-04-30T01:58:53.768Z,92.19
2023-04-30T01:59:53.840Z,92.64
2023-04-30T02:00:53.692Z,92.99
2023-04-30T02:01:53.774Z,93.10
2023-04-30T02:02:53.751Z,93.35
2023-04-30T02:03:53.814Z,93.87
2023-04-30T02:04:53.660Z,93.82
2023-04-30T02:05:53.646Z,93.76
2023-04-30T02:06:53.687Z,94.18
2023-04-30T02:07:53.622Z,94.48
2023-04-30T02:08:53.607Z,94.69
2023-04-30T02:09:53.841Z,94.73
2023-04-30T02:10:53.639Z,95.77
2023-04-30T02:11:53.572Z,95.21
2023-04-30T02:12:53.581Z,95.31
2023-04-30T02:13:53.547Z,95.37
2023-04-30T02:14:53.555Z,95.42
2023-04-30T02:15:53.545Z,94.65
2023-04-30T02:16:53.525Z,95.21
2023-04-30T02:17:53.544Z,94.28
2023-04-30T02:18:53.509Z,94.54
2023-04-30T02:19:53.664Z,94.34
2023-04-30T02:20:53.507Z,94.34
2023-04-30T02:21:53.481Z,94.34
2023-04-30T02:22:53.487Z,94.23
2023-04-30T02:23:53.452Z,95.21
2023-04-30T02:24:53.466Z,95.17
2023-04-30T02:25:53.437Z,94.85
2023-04-30T02:26:53.418Z,94.85
2023-04-30T02:27:53.418Z,95.06
2023-04-30T02:28:53.440Z,95.17
2023-04-30T02:29:53.485Z,95.00
2023-04-30T02:30:53.392Z,95.73
2023-04-30T02:31:53.422Z,95.42
2023-04-30T02:32:53.421Z,96.34
2023-04-30T02:33:53.385Z,95.83
2023-04-30T02:34:53.357Z,96.14
2023-04-30T02:35:53.332Z,95.42
2023-04-30T02:36:53.365Z,96.24
2023-04-30T02:37:53.324Z,95.68
2023-04-30T02:38:53.314Z,95.57
2023-04-30T02:39:53.500Z,95.48
2023-04-30T02:40:53.292Z,94.85
2023-04-30T02:41:53.272Z,95.64
2023-04-30T02:42:53.258Z,94.81
2023-04-30T02:43:53.248Z,94.23
2023-04-30T02:44:53.254Z,94.03
2023-04-30T02:45:53.305Z,94.03
2023-04-30T02:46:53.233Z,94.28
2023-04-30T02:47:53.285Z,94.85
2023-04-30T02:48:53.211Z,95.37
2023-04-30T02:49:53.408Z,94.44
2023-04-30T02:50:53.243Z,95.27
2023-04-30T02:51:53.212Z,94.03
2023-04-30T02:52:53.172Z,94.23
2023-04-30T02:53:53.170Z,93.93
2023-04-30T02:54:53.149Z,93.62
2023-04-30T02:55:53.193Z,94.03
2023-04-30T02:56:53.143Z,94.65
2023-04-30T02:57:53.142Z,94.40
2023-04-30T02:58:53.130Z,94.29
2023-04-30T02:59:53.498Z,93.98
2023-04-30T03:00:53.111Z,93.57
2023-04-30T03:01:53.107Z,93.78
2023-04-30T03:02:53.223Z,93.98
2023-04-30T03:03:53.108Z,94.09
2023-04-30T03:04:53.054Z,93.98
2023-04-30T03:05:53.048Z,93.78
2023-04-30T03:06:53.041Z,93.53
2023-04-30T03:07:53.032Z,93.53
2023-04-30T03:08:53.025Z,93.22
2023-04-30T03:09:53.149Z,93.43
2023-04-30T03:10:52.981Z,93.16
2023-04-30T03:11:53.014Z,93.16
2023-04-30T03:12:52.968Z,93.26
2023-04-30T03:14:24.986Z,93.12
2023-04-30T03:14:52.953Z,93.47
2023-04-30T03:15:52.960Z,93.68
2023-04-30T03:16:52.919Z,93.68
2023-04-30T03:17:52.967Z,93.57
2023-04-30T03:18:52.907Z,93.30
2023-04-30T03:19:53.069Z,93.47
2023-04-30T03:20:52.887Z,93.82
2023-04-30T03:21:52.876Z,93.78
2023-04-30T03:22:52.878Z,93.98
2023-04-30T03:23:52.845Z,94.34
2023-04-30T03:24:52.873Z,94.03
2023-04-30T03:25:52.836Z,94.34
2023-04-30T03:26:52.935Z,94.40
2023-04-30T03:27:52.820Z,94.34
2023-04-30T03:28:52.802Z,94.44
2023-04-30T03:29:53.129Z,94.85
2023-04-30T03:30:52.791Z,94.29
2023-04-30T03:31:52.996Z,94.54
2023-04-30T03:32:52.878Z,94.34
2023-04-30T03:33:52.809Z,94.29
2023-04-30T03:34:52.769Z,94.29
2023-04-30T03:35:52.738Z,94.29
2023-04-30T03:36:52.748Z,94.50
2023-04-30T03:37:52.748Z,94.29
2023-04-30T03:38:52.714Z,93.98
2023-04-30T03:39:52.955Z,94.29
2023-04-30T03:40:52.719Z,94.03
2023-04-30T03:41:52.688Z,94.65
2023-04-30T03:42:52.685Z,94.07
2023-04-30T03:43:52.667Z,94.69
2023-04-30T03:44:52.670Z,94.90
2023-04-30T03:45:52.774Z,94.69
2023-04-30T03:46:52.659Z,96.03
2023-04-30T03:47:52.703Z,95.31
2023-04-30T03:48:52.613Z,95.62
2023-04-30T03:49:52.789Z,95.73
2023-04-30T03:50:52.660Z,95.87
2023-04-30T03:51:52.614Z,95.56
2023-04-30T03:52:52.589Z,96.08
2023-04-30T03:53:52.563Z,96.85
2023-04-30T03:54:52.582Z,97.11
2023-04-30T03:55:52.564Z,97.11
2023-04-30T03:56:52.669Z,97.16
2023-04-30T03:57:52.523Z,96.85
2023-04-30T03:58:52.513Z,97.16
2023-04-30T03:59:52.620Z,96.89
2023-04-30T04:00:52.504Z,96.89
2023-04-30T04:01:52.526Z,97.52
2023-04-30T04:02:52.568Z,97.62
2023-04-30T04:03:52.531Z,97.52
2023-04-30T04:04:52.476Z,97.47
2023-04-30T04:05:52.531Z,97.72
2023-04-30T04:06:52.472Z,97.93
2023-04-30T04:07:52.451Z,97.93
2023-04-30T04:08:52.447Z,97.93
2023-04-30T04:09:52.722Z,97.52
2023-04-30T04:10:52.415Z,97.72
2023-04-30T04:11:52.508Z,97.52
2023-04-30T04:12:52.387Z,97.77
2023-04-30T04:13:52.405Z,97.35
2023-04-30T04:14:52.368Z,97.66
2023-04-30T04:15:52.471Z,97.56
2023-04-30T04:16:52.377Z,97.87
2023-04-30T04:17:52.501Z,98.24
2023-04-30T04:18:52.355Z,97.72
2023-04-30T04:19:52.461Z,97.72
2023-04-30T04:20:52.322Z,97.62
2023-04-30T04:21:52.325Z,97.31
2023-04-30T04:22:52.299Z,97.35
2023-04-30T04:23:52.286Z,97.14
2023-04-30T04:24:52.390Z,97.14
2023-04-30T04:25:52.308Z,97.35
2023-04-30T04:26:52.259Z,97.41
2023-04-30T04:27:52.270Z,97.25
2023-04-30T04:28:52.237Z,97.10
2023-04-30T04:29:52.384Z,96.79
2023-04-30T04:30:52.217Z,96.94
2023-04-30T04:31:52.221Z,97.25
2023-04-30T04:32:52.282Z,96.94
2023-04-30T04:33:52.263Z,97.00
2023-04-30T04:34:52.195Z,96.94
2023-04-30T04:35:52.188Z,97.04
2023-04-30T04:36:52.148Z,97.25
2023-04-30T04:37:52.188Z,97.45
2023-04-30T04:38:52.144Z,97.71
2023-04-30T04:39:52.358Z,97.50
2023-04-30T04:40:52.146Z,97.60
2023-04-30T04:41:52.118Z,97.71
2023-04-30T04:42:52.095Z,97.71
2023-04-30T04:43:52.107Z,97.91
2023-04-30T04:44:52.082Z,97.77
2023-04-30T04:45:52.136Z,98.08
2023-04-30T04:46:52.230Z,97.77
2023-04-30T04:47:52.234Z,97.97
2023-04-30T04:48:52.046Z,97.77
2023-04-30T04:49:52.231Z,97.62
2023-04-30T04:50:52.044Z,97.87
2023-04-30T04:51:52.093Z,97.56
2023-04-30T04:52:52.066Z,97.20
2023-04-30T04:53:51.998Z,97.16
2023-04-30T04:54:51.985Z,97.16
2023-04-30T04:55:51.969Z,97.10
2023-04-30T04:56:51.991Z,97.00
2023-04-30T04:57:51.970Z,97.16
2023-04-30T04:58:51.946Z,97.00
2023-04-30T04:59:51.989Z,97.06
2023-04-30T05:00:51.926Z,96.69
2023-04-30T05:01:52.016Z,96.89
2023-04-30T05:02:52.011Z,96.48
2023-04-30T05:03:51.969Z,96.69
2023-04-30T05:04:51.900Z,97.31
2023-04-30T05:05:51.872Z,97.35
2023-04-30T05:06:51.866Z,97.10
2023-04-30T05:07:51.869Z,96.89
2023-04-30T05:08:51.854Z,97.00
2023-04-30T05:09:51.893Z,97.00
2023-04-30T05:10:51.836Z,96.89
2023-04-30T05:11:51.811Z,97.26
2023-04-30T05:12:51.806Z,97.26
2023-04-30T05:13:51.811Z,96.64
2023-04-30T05:14:51.785Z,95.81
2023-04-30T05:15:51.804Z,95.92
2023-04-30T05:16:51.774Z,95.92
2023-04-30T05:17:51.806Z,96.02
2023-04-30T05:18:51.734Z,96.44
2023-04-30T05:19:53.063Z,96.23
2023-04-30T05:20:51.748Z,96.85
2023-04-30T05:21:51.741Z,95.96
2023-04-30T05:22:51.719Z,96.37
2023-04-30T05:23:51.693Z,97.26
2023-04-30T05:24:51.682Z,96.95
2023-04-30T05:25:51.687Z,97.07
2023-04-30T05:26:51.680Z,96.34
2023-04-30T05:27:51.656Z,95.83
2023-04-30T05:28:51.639Z,94.69
2023-04-30T05:29:51.633Z,95.68
2023-04-30T05:30:51.616Z,94.07
2023-04-30T05:31:52.804Z,94.69
2023-04-30T05:32:51.605Z,94.48
2023-04-30T05:33:51.593Z,93.91
2023-04-30T05:34:51.581Z,94.07
2023-04-30T05:35:51.585Z,94.48
2023-04-30T05:36:51.575Z,94.38
2023-04-30T05:37:51.560Z,94.43
2023-04-30T05:38:51.542Z,94.69
2023-04-30T05:39:51.556Z,94.48
2023-04-30T05:40:51.519Z,95.00
2023-04-30T05:41:52.879Z,95.10
2023-04-30T05:42:52.511Z,95.10
2023-04-30T05:43:51.496Z,95.21
2023-04-30T05:44:51.504Z,95.21
2023-04-30T05:45:51.510Z,94.38
2023-04-30T05:46:51.476Z,93.97
2023-04-30T05:47:51.554Z,93.87
2023-04-30T05:48:51.448Z,93.87
2023-04-30T05:49:51.481Z,93.87
2023-04-30T05:50:51.431Z,93.62
2023-04-30T05:51:51.449Z,93.82
2023-04-30T05:52:51.406Z,93.41
2023-04-30T05:53:51.408Z,93.41
2023-04-30T05:54:51.417Z,93.78
2023-04-30T05:55:51.400Z,93.01
2023-04-30T05:56:51.374Z,91.83
2023-04-30T05:57:51.364Z,90.97
2023-04-30T05:58:51.362Z,89.71
2023-04-30T05:59:51.427Z,86.25
2023-04-30T06:00:51.327Z,83.22
2023-04-30T06:01:51.412Z,79.00
2023-04-30T06:02:51.345Z,76.72
2023-04-30T06:03:51.356Z,76.17
2023-04-30T06:04:51.361Z,74.84
2023-04-30T06:05:51.342Z,76.14
2023-04-30T06:06:51.292Z,75.65
2023-04-30T06:07:51.276Z,74.18
2023-04-30T06:08:51.274Z,71.50
2023-04-30T06:09:51.250Z,71.01
2023-04-30T06:10:51.294Z,72.58
2023-04-30T06:11:51.226Z,72.24
2023-04-30T06:12:51.254Z,74.70
2023-04-30T06:13:51.225Z,75.07
2023-04-30T06:14:51.193Z,76.65
2023-04-30T06:15:51.220Z,75.35
2023-04-30T06:16:51.217Z,75.04
2023-04-30T06:17:51.288Z,74.15
2023-04-30T06:18:53.449Z,75.28
2023-04-30T06:19:52.253Z,74.84
2023-04-30T06:20:51.136Z,74.77
2023-04-30T06:21:51.127Z,74.32
2023-04-30T06:22:51.139Z,72.86
2023-04-30T06:23:51.107Z,70.07
2023-04-30T06:24:51.097Z,68.27
2023-04-30T06:25:51.092Z,67.62
2023-04-30T06:26:51.100Z,69.15
2023-04-30T06:27:51.067Z,68.71
2023-04-30T06:28:51.060Z,68.30
2023-04-30T06:29:51.079Z,69.35
2023-04-30T06:30:51.080Z,68.30
2023-04-30T06:31:51.144Z,68.84
2023-04-30T06:32:52.120Z,69.59
2023-04-30T06:33:51.011Z,68.95
2023-04-30T06:34:51.040Z,68.17
2023-04-30T06:35:51.031Z,68.21
2023-04-30T06:36:50.985Z,65.47
2023-04-30T06:37:50.976Z,64.12
2023-04-30T06:38:50.960Z,63.00
2023-04-30T06:39:50.942Z,63.30
2023-04-30T06:40:50.943Z,63.64
2023-04-30T06:41:50.932Z,63.51
2023-04-30T06:42:50.919Z,63.48
2023-04-30T06:43:51.041Z,63.14
2023-04-30T06:44:50.909Z,61.66
2023-04-30T06:45:50.961Z,60.62
2023-04-30T06:46:50.900Z,60.52
2023-04-30T06:47:50.969Z,60.79
2023-04-30T06:48:50.879Z,59.38
2023-04-30T06:49:50.842Z,58.81
2023-04-30T06:50:51.839Z,58.89
2023-04-30T06:51:50.863Z,57.75
2023-04-30T06:52:50.832Z,57.85
2023-04-30T06:53:50.806Z,57.92
2023-04-30T06:54:50.865Z,58.15
2023-04-30T06:55:50.794Z,56.38
2023-04-30T06:56:50.780Z,56.85
2023-04-30T06:57:50.770Z,55.65
2023-04-30T06:58:50.757Z,55.87
2023-04-30T06:59:50.767Z,57.16
2023-04-30T07:00:50.818Z,56.35
2023-04-30T07:01:50.767Z,56.12
2023-04-30T07:02:50.848Z,55.62
2023-04-30T07:03:50.823Z,55.85
2023-04-30T07:04:50.739Z,55.79
2023-04-30T07:05:50.674Z,55.59
2023-04-30T07:06:50.677Z,54.79
2023-04-30T07:07:50.673Z,54.53
2023-04-30T07:08:50.666Z,54.53
2023-04-30T07:09:51.704Z,53.75
2023-04-30T07:10:50.656Z,55.46
2023-04-30T07:11:50.683Z,55.34
2023-04-30T07:12:50.618Z,54.36
2023-04-30T07:13:50.604Z,55.06
2023-04-30T07:14:50.608Z,53.96
2023-04-30T07:15:50.655Z,54.13
2023-04-30T07:16:50.587Z,54.13
2023-04-30T07:17:50.641Z,54.21
2023-04-30T07:18:50.567Z,51.31
2023-04-30T07:19:50.542Z,53.22
2023-04-30T07:20:50.533Z,53.80
2023-04-30T07:21:50.525Z,52.67
2023-04-30T07:22:50.518Z,51.31
2023-04-30T07:23:50.527Z,52.67
2023-04-30T07:24:50.524Z,53.75
2023-04-30T07:25:50.501Z,53.92
2023-04-30T07:26:50.487Z,51.31
2023-04-30T07:27:50.472Z,51.59
2023-04-30T07:28:50.482Z,51.73
2023-04-30T07:29:50.705Z,53.05
2023-04-30T07:30:50.446Z,52.56
2023-04-30T07:31:50.433Z,51.07
2023-04-30T07:32:50.455Z,53.17
2023-04-30T07:33:50.416Z,50.98
2023-04-30T07:34:50.419Z,51.66
2023-04-30T07:35:50.396Z,49.11
2023-04-30T07:36:50.385Z,49.27
2023-04-30T07:37:50.448Z,49.09
2023-04-30T07:38:50.375Z,49.57
2023-04-30T07:39:50.357Z,49.77
2023-04-30T07:40:50.340Z,49.72
2023-04-30T07:41:50.360Z,49.75
2023-04-30T07:42:50.378Z,49.15
2023-04-30T07:43:50.308Z,49.04
2023-04-30T07:44:50.312Z,49.24
2023-04-30T07:45:50.369Z,47.81
2023-04-30T07:46:50.288Z,49.18
2023-04-30T07:47:50.343Z,46.36
2023-04-30T07:48:50.284Z,45.57
2023-04-30T07:49:50.263Z,45.90
2023-04-30T07:50:52.584Z,48.32
2023-04-30T07:51:51.251Z,47.06
2023-04-30T07:52:50.232Z,44.85
2023-04-30T07:53:50.211Z,44.85
2023-04-30T07:54:50.226Z,43.46
2023-04-30T07:55:50.231Z,44.59
2023-04-30T07:56:50.176Z,45.03
2023-04-30T07:57:50.218Z,45.36
2023-04-30T07:58:50.182Z,44.85
2023-04-30T07:59:51.424Z,45.98
2023-04-30T08:00:51.144Z,47.30
2023-04-30T08:01:50.191Z,46.89
2023-04-30T08:02:50.320Z,47.72
2023-04-30T08:03:50.218Z,47.38
2023-04-30T08:04:50.106Z,47.38
2023-04-30T08:05:50.111Z,47.17
2023-04-30T08:06:50.277Z,47.67
2023-04-30T08:07:50.076Z,46.47
2023-04-30T08:08:50.573Z,46.69
2023-04-30T08:09:51.057Z,48.46
2023-04-30T08:10:50.097Z,46.97
2023-04-30T08:11:50.059Z,48.00
2023-04-30T08:12:50.049Z,47.50
2023-04-30T08:13:50.036Z,47.38
2023-04-30T08:14:50.020Z,47.94
2023-04-30T08:15:50.021Z,47.23
2023-04-30T08:16:50.145Z,45.72
2023-04-30T08:17:50.073Z,45.82
2023-04-30T08:18:49.983Z,47.35
2023-04-30T08:19:49.977Z,47.05
2023-04-30T08:20:49.997Z,47.17
2023-04-30T08:21:49.977Z,47.17
2023-04-30T08:22:49.959Z,47.86
2023-04-30T08:23:49.932Z,47.23
2023-04-30T08:24:49.914Z,47.41
2023-04-30T08:25:49.902Z,46.48
2023-04-30T08:26:49.938Z,44.87
2023-04-30T08:27:49.906Z,46.34
2023-04-30T08:28:49.883Z,47.24
2023-04-30T08:29:49.881Z,45.35
2023-04-30T08:30:49.876Z,44.12
2023-04-30T08:31:49.998Z,44.83
2023-04-30T08:32:49.903Z,45.41
2023-04-30T08:33:49.821Z,45.41
2023-04-30T08:34:49.813Z,45.10
2023-04-30T08:35:49.810Z,43.84
2023-04-30T08:36:49.846Z,47.16
2023-04-30T08:37:49.789Z,45.94
2023-04-30T08:38:49.772Z,44.81
2023-04-30T08:39:49.760Z,43.38
2023-04-30T08:40:51.939Z,44.12
2023-04-30T08:41:50.770Z,42.33
2023-04-30T08:42:49.750Z,43.08
2023-04-30T08:43:49.757Z,44.40
2023-04-30T08:44:49.721Z,43.10
2023-04-30T08:45:49.719Z,42.92
2023-04-30T08:46:49.698Z,44.55
2023-04-30T08:47:49.747Z,44.00
2023-04-30T08:48:49.720Z,43.24
2023-04-30T08:49:49.666Z,44.67
2023-04-30T08:50:49.666Z,44.59
2023-04-30T08:51:49.679Z,45.62
2023-04-30T08:52:49.665Z,46.56
2023-04-30T08:53:49.638Z,44.77
2023-04-30T08:54:49.649Z,44.95
2023-04-30T08:55:49.663Z,45.42
2023-04-30T08:56:49.601Z,45.97
2023-04-30T08:57:49.599Z,46.19
2023-04-30T08:58:49.600Z,47.09
2023-04-30T08:59:49.572Z,48.66
2023-04-30T09:00:49.588Z,46.22
2023-04-30T09:01:52.037Z,46.25
2023-04-30T09:02:49.650Z,45.52
2023-04-30T09:03:49.616Z,44.79
2023-04-30T09:04:49.526Z,46.40
2023-04-30T09:05:49.580Z,44.89
2023-04-30T09:06:49.578Z,44.45
2023-04-30T09:08:02.599Z,47.04
2023-04-30T09:08:51.478Z,43.62
2023-04-30T09:09:49.538Z,44.23
2023-04-30T09:10:49.475Z,42.94
2023-04-30T09:11:49.456Z,43.18
2023-04-30T09:12:49.438Z,44.77
2023-04-30T09:13:49.430Z,43.59
2023-04-30T09:15:21.367Z,44.97
2023-04-30T09:15:49.469Z,44.35
2023-04-30T09:16:49.445Z,43.80
2023-04-30T09:17:49.434Z,42.52
2023-04-30T09:18:49.397Z,43.72
2023-04-30T09:19:49.427Z,44.15
2023-04-30T09:20:49.402Z,44.55
2023-04-30T09:21:49.373Z,46.15
2023-04-30T09:22:49.562Z,45.53
2023-04-30T09:23:49.346Z,44.53
2023-04-30T09:24:49.335Z,43.82
2023-04-30T09:25:49.346Z,43.76
2023-04-30T09:26:49.346Z,43.46
2023-04-30T09:27:49.304Z,44.39
2023-04-30T09:28:49.300Z,43.76
2023-04-30T09:29:49.290Z,43.46
2023-04-30T09:30:49.301Z,44.39
2023-04-30T09:31:49.309Z,43.46
2023-04-30T09:32:49.293Z,44.09
2023-04-30T09:33:49.249Z,45.70
2023-04-30T09:34:49.278Z,45.29
2023-04-30T09:35:49.251Z,45.44
2023-04-30T09:36:49.220Z,44.93
2023-04-30T09:37:49.244Z,45.14
2023-04-30T09:38:49.216Z,46.75
2023-04-30T09:39:49.178Z,46.25
2023-04-30T09:40:49.196Z,45.46
2023-04-30T09:41:49.167Z,46.47
2023-04-30T09:42:49.158Z,45.07
2023-04-30T09:43:49.157Z,46.67
2023-04-30T09:44:49.143Z,47.98
2023-04-30T09:45:49.129Z,47.05
2023-04-30T09:46:49.172Z,46.25
2023-04-30T09:47:49.176Z,46.17
2023-04-30T09:48:49.102Z,47.17
2023-04-30T09:49:49.085Z,45.18
2023-04-30T09:50:49.098Z,47.60
2023-04-30T09:51:49.085Z,46.85
2023-04-30T09:52:49.079Z,46.75
2023-04-30T09:53:49.075Z,47.07
2023-04-30T09:54:49.083Z,47.30
2023-04-30T09:55:49.124Z,47.19
2023-04-30T09:56:49.027Z,47.19
2023-04-30T09:57:49.023Z,46.89
2023-04-30T09:58:49.061Z,46.29
2023-04-30T09:59:49.056Z,47.32
2023-04-30T10:00:49.023Z,46.23
2023-04-30T10:01:49.024Z,48.21
2023-04-30T10:02:49.040Z,47.58
2023-04-30T10:03:48.979Z,46.11
2023-04-30T10:04:48.974Z,45.42
2023-04-30T10:05:48.955Z,47.08
2023-04-30T10:06:49.084Z,48.60
2023-04-30T10:07:48.999Z,48.50
2023-04-30T10:08:48.915Z,50.67
2023-04-30T10:09:48.917Z,48.73
2023-04-30T10:10:48.911Z,46.94
2023-04-30T10:11:48.869Z,47.64
2023-04-30T10:12:48.898Z,47.74
2023-04-30T10:13:48.841Z,49.05
2023-04-30T10:14:48.881Z,48.07
2023-04-30T10:15:48.880Z,48.39
2023-04-30T10:16:48.936Z,47.89
2023-04-30T10:17:48.880Z,49.38
2023-04-30T10:18:48.845Z,49.18
2023-04-30T10:19:48.802Z,48.10
2023-04-30T10:20:48.814Z,48.93
2023-04-30T10:21:48.815Z,49.13
2023-04-30T10:22:48.790Z,49.53
2023-04-30T10:23:48.787Z,48.11
2023-04-30T10:24:48.758Z,49.02
2023-04-30T10:25:48.849Z,49.53
2023-04-30T10:26:48.769Z,48.72
2023-04-30T10:27:49.804Z,49.73
2023-04-30T10:28:48.763Z,47.99
2023-04-30T10:29:48.691Z,49.51
2023-04-30T10:30:48.696Z,49.30
2023-04-30T10:31:48.743Z,48.90
2023-04-30T10:32:48.732Z,48.50
2023-04-30T10:33:48.687Z,49.38
2023-04-30T10:34:48.690Z,49.61
2023-04-30T10:35:48.677Z,48.39
2023-04-30T10:36:48.734Z,49.02
2023-04-30T10:37:48.621Z,48.42
2023-04-30T10:38:48.675Z,48.80
2023-04-30T10:39:48.670Z,47.89
2023-04-30T10:40:48.588Z,49.51
2023-04-30T10:41:48.634Z,49.71
2023-04-30T10:42:48.568Z,48.17
2023-04-30T10:43:48.584Z,48.90
2023-04-30T10:44:48.545Z,49.21
2023-04-30T10:45:48.539Z,48.90
2023-04-30T10:46:48.531Z,49.41
2023-04-30T10:47:48.559Z,48.93
2023-04-30T10:48:48.538Z,48.80
2023-04-30T10:49:48.523Z,48.30
2023-04-30T10:50:48.503Z,48.58
2023-04-30T10:51:48.529Z,48.47
2023-04-30T10:52:48.497Z,47.56
2023-04-30T10:53:48.467Z,47.89
2023-04-30T10:54:48.487Z,48.50
2023-04-30T10:55:48.481Z,49.58
2023-04-30T10:56:48.456Z,49.58
2023-04-30T10:57:48.481Z,48.25
2023-04-30T10:58:48.422Z,48.27
2023-04-30T10:59:48.402Z,48.39
2023-04-30T11:00:48.464Z,49.08
2023-04-30T11:01:48.555Z,49.08
2023-04-30T11:02:48.453Z,47.87
2023-04-30T11:03:48.397Z,48.05
2023-04-30T11:04:48.420Z,49.96
2023-04-30T11:05:48.359Z,49.76
2023-04-30T11:06:48.505Z,48.17
2023-04-30T11:07:48.349Z,47.16
2023-04-30T11:08:48.319Z,48.27
2023-04-30T11:09:48.368Z,48.39
2023-04-30T11:10:48.327Z,48.27
2023-04-30T11:11:48.391Z,48.37
2023-04-30T11:12:48.294Z,48.07
2023-04-30T11:13:48.295Z,49.26
2023-04-30T11:14:48.292Z,48.47
2023-04-30T11:15:48.339Z,48.10
2023-04-30T11:16:48.280Z,48.80
2023-04-30T11:17:48.251Z,49.41
2023-04-30T11:18:48.255Z,48.80
2023-04-30T11:19:48.242Z,49.38
2023-04-30T11:20:48.272Z,50.98
2023-04-30T11:21:48.221Z,48.45
2023-04-30T11:22:48.185Z,48.65
2023-04-30T11:23:48.165Z,48.27
2023-04-30T11:24:48.190Z,48.70
2023-04-30T11:25:48.187Z,49.51
2023-04-30T11:26:48.173Z,49.61
2023-04-30T11:27:48.228Z,49.84
2023-04-30T11:28:48.148Z,49.73
2023-04-30T11:29:48.102Z,49.13
2023-04-30T11:30:48.115Z,48.93
2023-04-30T11:31:48.198Z,48.72
2023-04-30T11:32:48.240Z,48.82
2023-04-30T11:33:48.110Z,50.14
2023-04-30T11:34:48.061Z,49.84
2023-04-30T11:35:48.052Z,51.05
2023-04-30T11:36:48.061Z,51.43
2023-04-30T11:37:48.080Z,49.81
2023-04-30T11:38:48.025Z,51.03
2023-04-30T11:39:48.014Z,49.51
2023-04-30T11:40:48.030Z,48.80
2023-04-30T11:41:47.996Z,49.01
2023-04-30T11:42:47.994Z,49.53
2023-04-30T11:43:47.991Z,49.51
2023-04-30T11:44:47.974Z,50.12
2023-04-30T11:45:48.094Z,48.80
2023-04-30T11:46:47.999Z,50.62
2023-04-30T11:47:48.114Z,49.69
2023-04-30T11:48:47.909Z,49.89
2023-04-30T11:49:47.915Z,48.19
2023-04-30T11:50:47.930Z,48.19
2023-04-30T11:51:47.903Z,47.99
2023-04-30T11:52:48.015Z,47.99
2023-04-30T11:53:47.886Z,48.60
2023-04-30T11:54:47.852Z,47.89
2023-04-30T11:55:47.857Z,48.88
2023-04-30T11:56:47.819Z,49.66
2023-04-30T11:57:47.821Z,48.47
2023-04-30T11:58:47.819Z,49.08
2023-04-30T11:59:47.821Z,47.97
2023-04-30T12:00:47.861Z,48.88
2023-04-30T12:01:47.812Z,48.88
2023-04-30T12:02:48.126Z,49.18
2023-04-30T12:03:47.833Z,49.46
2023-04-30T12:04:47.738Z,49.46
2023-04-30T12:05:47.742Z,48.75
2023-04-30T12:06:47.787Z,48.55
2023-04-30T12:07:47.762Z,49.26
2023-04-30T12:08:47.707Z,48.85
2023-04-30T12:09:47.720Z,48.25
2023-04-30T12:10:47.696Z,48.25
2023-04-30T12:11:47.717Z,48.55
2023-04-30T12:12:47.665Z,47.32
2023-04-30T12:13:47.666Z,48.37
2023-04-30T12:14:47.652Z,48.05
2023-04-30T12:15:47.639Z,47.92
2023-04-30T12:16:47.698Z,48.02
2023-04-30T12:17:47.644Z,48.22
2023-04-30T12:18:47.629Z,48.22
2023-04-30T12:19:47.610Z,48.33
2023-04-30T12:20:47.603Z,49.04
2023-04-30T12:21:47.596Z,48.85
2023-04-30T12:22:47.574Z,47.85
2023-04-30T12:23:47.566Z,48.85
2023-04-30T12:24:47.555Z,48.55
2023-04-30T12:25:47.551Z,48.05
2023-04-30T12:26:47.564Z,48.35
2023-04-30T12:27:47.527Z,49.13
2023-04-30T12:28:47.556Z,47.92
2023-04-30T12:29:47.498Z,48.22
2023-04-30T12:30:47.519Z,48.33
2023-04-30T12:31:47.594Z,47.85
2023-04-30T12:32:47.491Z,48.85
2023-04-30T12:33:47.473Z,48.35
2023-04-30T12:34:47.447Z,48.65
2023-04-30T12:35:47.527Z,47.72
2023-04-30T12:36:47.451Z,47.92
2023-04-30T12:37:47.435Z,47.32
2023-04-30T12:38:47.458Z,47.12
2023-04-30T12:39:47.458Z,47.24
2023-04-30T12:40:47.395Z,48.25
2023-04-30T12:41:47.403Z,48.27
2023-04-30T12:42:47.364Z,48.55
2023-04-30T12:43:47.354Z,48.83
2023-04-30T12:44:47.410Z,47.92
2023-04-30T12:45:47.376Z,48.83
2023-04-30T12:46:47.629Z,48.83
2023-04-30T12:47:47.348Z,48.63
2023-04-30T12:48:47.306Z,48.63
2023-04-30T12:49:47.318Z,49.13
2023-04-30T12:50:47.299Z,49.84
2023-04-30T12:51:47.290Z,48.73
2023-04-30T12:52:47.283Z,48.98